createdAt,value
2024-01-06T00:00:04.039Z,99659.25
2024-01-06T00:00:33.605Z,99659.53
2024-01-06T00:00:55.443Z,99669.34
2024-01-06T00:01:17.747Z,99664.91
2024-01-06T00:01:40.454Z,99668.34
2024-01-06T00:02:02.880Z,99662.19
2024-01-06T00:02:24.583Z,99666.91
2024-01-06T00:02:46.339Z,99674.00
2024-01-06T00:03:09.477Z,99673.72
2024-01-06T00:03:32.256Z,99670.19
2024-01-06T00:03:54.119Z,99671.69
2024-01-06T00:04:15.891Z,99663.75
2024-01-06T00:04:37.620Z,99673.44
2024-01-06T00:04:59.459Z,99673.44
2024-01-06T00:05:22.114Z,99669.06
2024-01-06T00:05:43.805Z,99669.13
2024-01-06T00:06:06.431Z,99673.69
2024-01-06T00:06:28.122Z,99674.75
2024-01-06T00:06:49.798Z,99675.38
2024-01-06T00:07:11.677Z,99675.09
2024-01-06T00:07:34.316Z,99672.38
2024-01-06T00:07:55.961Z,99682.06
2024-01-06T00:08:17.584Z,99675.91
2024-01-06T00:08:39.209Z,99677.53
2024-01-06T00:09:00.803Z,99651.72
2024-01-06T00:09:23.483Z,99676.66
2024-01-06T00:09:45.210Z,99677.63
2024-01-06T00:10:07.805Z,99645.53
2024-01-06T00:10:29.606Z,99672.09
2024-01-06T00:10:51.228Z,99671.94
2024-01-06T00:11:12.961Z,99677.97
2024-01-06T00:11:35.555Z,99673.84
2024-01-06T00:11:57.266Z,99673.28
2024-01-06T00:12:19.635Z,99676.19
2024-01-06T00:12:41.296Z,99671.41
2024-01-06T00:13:03.066Z,99675.78
2024-01-06T00:13:24.835Z,99672.06
2024-01-06T00:13:47.424Z,99673.56
2024-01-06T00:14:09.132Z,99677.50
2024-01-06T00:14:30.743Z,99672.78
2024-01-06T00:14:52.356Z,99677.91
2024-01-06T00:15:14.161Z,99676.44
2024-01-06T00:15:35.861Z,99681.56
2024-01-06T00:15:58.866Z,99682.06
2024-01-06T00:16:21.407Z,99681.34
2024-01-06T00:16:43.069Z,99684.28
2024-01-06T00:17:04.903Z,99677.13
2024-01-06T00:17:26.523Z,99679.41
2024-01-06T00:17:48.276Z,99680.94
2024-01-06T00:18:12.336Z,99674.50
2024-01-06T00:18:34.193Z,99678.72
2024-01-06T00:18:56.001Z,99682.97
2024-01-06T00:19:18.703Z,99680.38
2024-01-06T00:19:40.477Z,99682.88
2024-01-06T00:20:03.634Z,99682.66
2024-01-06T00:20:25.544Z,99682.59
2024-01-06T00:20:47.165Z,99674.38
2024-01-06T00:21:09.408Z,99675.34
2024-01-06T00:21:31.056Z,99676.91
2024-01-06T00:21:53.069Z,99670.69
2024-01-06T00:22:15.693Z,99664.59
2024-01-06T00:22:37.663Z,99679.09
2024-01-06T00:22:59.996Z,99672.84
2024-01-06T00:23:21.671Z,99680.38
2024-01-06T00:23:43.394Z,99680.16
2024-01-06T00:24:06.669Z,99667.97
2024-01-06T00:24:28.658Z,99682.38
2024-01-06T00:24:50.432Z,99682.69
2024-01-06T00:25:12.161Z,99680.94
2024-01-06T00:25:33.761Z,99682.25
2024-01-06T00:25:56.384Z,99676.75
2024-01-06T00:26:18.005Z,99680.81
2024-01-06T00:26:39.675Z,99678.63
2024-01-06T00:27:01.340Z,99684.44
2024-01-06T00:27:23.053Z,99683.25
2024-01-06T00:27:45.789Z,99682.03
2024-01-06T00:28:07.515Z,99684.38
2024-01-06T00:28:29.328Z,99662.81
2024-01-06T00:28:51.095Z,99686.00
2024-01-06T00:29:12.690Z,99676.19
2024-01-06T00:29:34.320Z,99677.19
2024-01-06T00:29:57.065Z,99685.78
2024-01-06T00:30:18.818Z,99686.66
2024-01-06T00:30:40.555Z,99682.94
2024-01-06T00:31:02.393Z,99661.56
2024-01-06T00:31:24.236Z,99683.38
2024-01-06T00:31:46.990Z,99683.25
2024-01-06T00:32:09.017Z,99688.19
2024-01-06T00:32:31.038Z,99679.25
2024-01-06T00:32:52.708Z,99689.19
2024-01-06T00:33:15.745Z,99684.31
2024-01-06T00:33:38.559Z,99681.31
2024-01-06T00:34:00.412Z,99677.66
2024-01-06T00:34:22.349Z,99681.97
2024-01-06T00:34:44.118Z,99687.03
2024-01-06T00:35:06.473Z,99696.88
2024-01-06T00:35:28.107Z,99680.66
2024-01-06T00:35:50.685Z,99679.22
2024-01-06T00:36:12.455Z,99680.16
2024-01-06T00:36:34.212Z,99691.25
2024-01-06T00:36:55.953Z,99691.97
2024-01-06T00:37:17.628Z,99684.03
2024-01-06T00:37:39.329Z,99688.66
2024-01-06T00:38:02.383Z,99675.63
2024-01-06T00:38:24.020Z,99693.69
2024-01-06T00:38:45.773Z,99690.84
2024-01-06T00:39:07.438Z,99691.50
2024-01-06T00:39:29.147Z,99695.16
2024-01-06T00:39:51.642Z,99697.00
2024-01-06T00:40:15.072Z,99696.88
2024-01-06T00:40:36.751Z,99682.38
2024-01-06T00:40:58.362Z,99697.59
2024-01-06T00:41:19.980Z,99685.03
2024-01-06T00:41:41.613Z,99692.34
2024-01-06T00:42:03.475Z,99695.31
2024-01-06T00:42:26.140Z,99697.91
2024-01-06T00:42:47.890Z,99699.50
2024-01-06T00:43:09.635Z,99689.84
2024-01-06T00:43:31.267Z,99699.28
2024-01-06T00:43:52.941Z,99687.75
2024-01-06T00:44:14.580Z,99680.06
2024-01-06T00:44:38.525Z,99697.94
2024-01-06T00:45:00.140Z,99683.25
2024-01-06T00:45:22.078Z,99697.16
2024-01-06T00:45:43.788Z,99691.97
2024-01-06T00:46:05.473Z,99700.03
2024-01-06T00:46:28.103Z,99701.44
2024-01-06T00:46:49.745Z,99700.59
2024-01-06T00:47:11.342Z,99703.88
2024-01-06T00:47:33.019Z,99703.75
2024-01-06T00:47:54.848Z,99696.66
2024-01-06T00:48:19.020Z,99702.78
2024-01-06T00:48:40.885Z,99700.13
2024-01-06T00:49:02.909Z,99700.31
2024-01-06T00:49:24.681Z,99702.78
2024-01-06T00:49:46.556Z,99697.34
2024-01-06T00:50:10.127Z,99693.75
2024-01-06T00:50:31.838Z,99692.19
2024-01-06T00:50:53.511Z,99697.19
2024-01-06T00:51:19.004Z,99694.53
2024-01-06T00:51:42.657Z,99690.81
2024-01-06T00:52:10.263Z,99698.66
2024-01-06T00:52:39.861Z,99703.16
2024-01-06T00:53:05.190Z,99703.03
2024-01-06T00:53:31.272Z,99697.31
2024-01-06T00:53:55.075Z,99701.44
2024-01-06T00:56:22.794Z,99703.38
2024-01-06T00:56:46.086Z,99698.88
2024-01-06T00:57:09.595Z,99696.28
2024-01-06T00:57:34.267Z,99698.09
2024-01-06T00:57:59.703Z,99695.59
2024-01-06T00:58:22.012Z,99703.22
2024-01-06T00:58:45.159Z,99707.41
2024-01-06T00:59:09.271Z,99702.03
2024-01-06T00:59:37.216Z,99704.56
2024-01-06T01:00:04.391Z,99697.34
2024-01-06T01:01:21.743Z,99701.41
2024-01-06T01:01:44.457Z,99701.19
2024-01-06T01:02:06.107Z,99701.91
2024-01-06T01:02:27.721Z,99709.09
2024-01-06T01:02:49.409Z,99701.47
2024-01-06T01:03:11.090Z,99696.81
2024-01-06T01:03:35.149Z,99709.16
2024-01-06T01:03:56.926Z,99707.16
2024-01-06T01:04:18.742Z,99694.75
2024-01-06T01:04:40.545Z,99702.66
2024-01-06T01:05:03.080Z,99702.50
2024-01-06T01:05:25.841Z,99697.19
2024-01-06T01:05:47.552Z,99708.66
2024-01-06T01:06:09.536Z,99700.63
2024-01-06T01:06:31.235Z,99702.66
2024-01-06T01:06:53.003Z,99701.63
2024-01-06T01:07:14.668Z,99703.50
2024-01-06T01:07:37.663Z,99707.44
2024-01-06T01:07:59.306Z,99704.78
2024-01-06T01:08:20.942Z,99706.28
2024-01-06T01:08:42.568Z,99705.53
2024-01-06T01:09:05.297Z,99703.72
2024-01-06T01:09:27.109Z,99709.16
2024-01-06T01:09:49.849Z,99702.06
2024-01-06T01:10:11.732Z,99699.41
2024-01-06T01:10:33.389Z,99708.19
2024-01-06T01:10:55.004Z,99710.09
2024-01-06T01:11:16.905Z,99705.81
2024-01-06T01:11:38.618Z,99704.78
2024-01-06T01:12:01.253Z,99703.84
2024-01-06T01:12:22.936Z,99710.09
2024-01-06T01:12:44.614Z,99709.31
2024-01-06T01:13:06.329Z,99703.44
2024-01-06T01:13:27.998Z,99708.63
2024-01-06T01:13:50.668Z,99706.59
2024-01-06T01:14:12.344Z,99704.72
2024-01-06T01:14:33.980Z,99709.81
2024-01-06T01:14:55.727Z,99706.22
2024-01-06T01:15:17.496Z,99703.34
2024-01-06T01:15:40.288Z,99708.50
2024-01-06T01:16:02.011Z,99710.25
2024-01-06T01:16:23.650Z,99705.09
2024-01-06T01:16:45.291Z,99707.69
2024-01-06T01:17:07.280Z,99710.13
2024-01-06T01:17:29.954Z,99708.38
2024-01-06T01:17:51.710Z,99708.22
2024-01-06T01:18:14.026Z,99712.81
2024-01-06T01:18:37.292Z,99701.72
2024-01-06T01:19:00.139Z,99705.38
2024-01-06T01:19:21.955Z,99705.31
2024-01-06T01:19:43.754Z,99707.88
2024-01-06T01:20:42.838Z,99706.81
2024-01-06T01:21:04.581Z,99703.34
2024-01-06T01:21:26.309Z,99705.09
2024-01-06T01:21:47.970Z,99709.53
2024-01-06T01:22:09.711Z,99707.75
2024-01-06T01:22:32.292Z,99701.09
2024-01-06T01:22:53.962Z,99711.16
2024-01-06T01:23:15.589Z,99712.88
2024-01-06T01:23:37.514Z,99707.44
2024-01-06T01:23:59.117Z,99703.13
2024-01-06T01:24:21.762Z,99706.66
2024-01-06T01:24:43.494Z,99713.41
2024-01-06T01:25:08.575Z,99712.75
2024-01-06T01:25:30.190Z,99715.63
2024-01-06T01:25:52.894Z,99687.44
2024-01-06T01:26:14.643Z,99714.84
2024-01-06T01:26:36.269Z,99717.44
2024-01-06T01:26:57.913Z,99710.66
2024-01-06T01:27:19.595Z,99713.97
2024-01-06T01:27:42.301Z,99722.63
2024-01-06T01:28:04.569Z,99719.00
2024-01-06T01:28:26.288Z,99725.16
2024-01-06T01:28:47.949Z,99724.31
2024-01-06T01:29:09.596Z,99721.94
2024-01-06T01:29:32.240Z,99724.75
2024-01-06T01:29:55.892Z,99702.50
2024-01-06T01:30:17.780Z,99722.31
2024-01-06T01:30:39.585Z,99721.06
2024-01-06T01:31:01.377Z,99725.50
2024-01-06T01:31:23.221Z,99668.47
2024-01-06T01:31:46.096Z,99721.72
2024-01-06T01:32:07.920Z,99717.94
2024-01-06T01:32:29.726Z,99724.81
2024-01-06T01:32:51.606Z,99728.25
2024-01-06T01:33:13.638Z,99726.44
2024-01-06T01:33:37.760Z,99719.44
2024-01-06T01:33:59.673Z,99725.28
2024-01-06T01:34:21.552Z,99728.75
2024-01-06T01:34:43.431Z,99726.91
2024-01-06T01:35:06.156Z,99725.06
2024-01-06T01:35:28.782Z,99712.88
2024-01-06T01:35:50.429Z,99709.75
2024-01-06T01:36:12.062Z,99720.72
2024-01-06T01:36:33.756Z,99727.66
2024-01-06T01:36:55.400Z,99727.66
2024-01-06T01:37:17.092Z,99706.94
2024-01-06T01:37:39.733Z,99728.59
2024-01-06T01:38:01.391Z,99729.56
2024-01-06T01:38:23.030Z,99725.00
2024-01-06T01:38:44.636Z,99731.13
2024-01-06T01:39:06.285Z,99723.94
2024-01-06T01:39:29.013Z,99728.59
2024-01-06T01:39:50.666Z,99726.69
2024-01-06T01:40:12.556Z,99727.88
2024-01-06T01:40:34.676Z,99725.06
2024-01-06T01:40:56.316Z,99733.84
2024-01-06T01:41:17.956Z,99724.31
2024-01-06T01:41:42.441Z,99733.69
2024-01-06T01:42:04.472Z,99723.88
2024-01-06T01:42:26.138Z,99735.28
2024-01-06T01:42:47.817Z,99730.91
2024-01-06T01:43:17.222Z,99728.88
2024-01-06T01:43:41.296Z,99725.66
2024-01-06T01:44:03.031Z,99726.91
2024-01-06T01:44:24.675Z,99734.34
2024-01-06T01:44:46.301Z,99721.50
2024-01-06T01:45:10.522Z,99728.16
2024-01-06T01:45:33.389Z,99731.63
2024-01-06T01:45:56.670Z,99731.69
2024-01-06T01:46:18.386Z,99717.78
2024-01-06T01:46:41.163Z,99726.31
2024-01-06T01:47:05.655Z,99734.22
2024-01-06T01:47:27.861Z,99726.16
2024-01-06T01:47:49.758Z,99734.84
2024-01-06T01:48:12.623Z,99725.06
2024-01-06T01:48:35.717Z,99729.34
2024-01-06T01:49:01.122Z,99724.16
2024-01-06T01:49:23.535Z,99734.41
2024-01-06T01:49:46.714Z,99725.66
2024-01-06T01:50:10.686Z,99726.59
2024-01-06T01:50:32.440Z,99731.66
2024-01-06T01:50:55.168Z,99728.09
2024-01-06T01:51:17.017Z,99728.03
2024-01-06T01:51:39.543Z,99735.13
2024-01-06T01:52:01.538Z,99726.47
2024-01-06T01:52:24.522Z,99724.56
2024-01-06T01:52:46.157Z,99732.63
2024-01-06T01:53:07.934Z,99731.78
2024-01-06T01:53:30.705Z,99725.59
2024-01-06T01:53:52.391Z,99732.22
2024-01-06T01:54:15.504Z,99736.66
2024-01-06T01:54:37.271Z,99729.47
2024-01-06T01:54:58.950Z,99737.28
2024-01-06T01:55:20.744Z,99728.47
2024-01-06T01:55:44.804Z,99738.78
2024-01-06T01:56:06.990Z,99735.94
2024-01-06T01:56:34.903Z,99730.63
2024-01-06T01:56:56.809Z,99736.63
2024-01-06T01:57:18.842Z,99734.75
2024-01-06T01:57:40.799Z,99731.97
2024-01-06T01:58:02.525Z,99734.75
2024-01-06T01:58:25.699Z,99728.44
2024-01-06T01:58:47.865Z,99729.53
2024-01-06T01:59:12.288Z,99732.66
2024-01-06T01:59:34.878Z,99734.34
2024-01-06T01:59:56.617Z,99739.00
2024-01-06T02:00:19.712Z,99736.75
2024-01-06T02:00:41.506Z,99730.09
2024-01-06T02:01:03.346Z,99725.50
2024-01-06T02:01:25.261Z,99725.38
2024-01-06T02:01:47.361Z,99735.59
2024-01-06T02:12:28.506Z,99739.28
2024-01-06T02:12:52.984Z,99740.28
2024-01-06T02:13:14.891Z,99735.91
2024-01-06T02:13:37.776Z,99743.22
2024-01-06T02:14:00.388Z,99748.31
2024-01-06T02:14:22.036Z,99738.50
2024-01-06T02:14:44.248Z,99746.41
2024-01-06T02:15:06.834Z,99748.13
2024-01-06T02:15:28.501Z,99745.38
2024-01-06T02:15:50.214Z,99748.84
2024-01-06T02:16:12.885Z,99750.84
2024-01-06T02:16:34.541Z,99748.91
2024-01-06T02:16:56.157Z,99752.22
2024-01-06T02:17:17.849Z,99748.53
2024-01-06T02:17:40.993Z,99745.97
2024-01-06T02:18:02.870Z,99739.00
2024-01-06T02:18:25.597Z,99745.88
2024-01-06T02:18:47.793Z,99748.47
2024-01-06T02:19:12.337Z,99749.13
2024-01-06T02:19:34.257Z,99748.25
2024-01-06T02:19:57.585Z,99757.22
2024-01-06T02:20:20.939Z,99744.31
2024-01-06T02:20:45.562Z,99751.19
2024-01-06T02:21:07.818Z,99742.38
2024-01-06T02:21:32.568Z,99750.25
2024-01-06T02:21:55.783Z,99749.28
2024-01-06T02:22:17.472Z,99723.78
2024-01-06T02:22:40.203Z,99744.81
2024-01-06T02:23:02.153Z,99753.31
2024-01-06T02:23:23.819Z,99754.09
2024-01-06T02:23:45.455Z,99742.91
2024-01-06T02:24:07.273Z,99753.78
2024-01-06T02:24:28.931Z,99756.22
2024-01-06T02:24:51.599Z,99747.19
2024-01-06T02:25:13.595Z,99758.44
2024-01-06T02:25:36.251Z,99746.84
2024-01-06T02:25:58.010Z,99750.31
2024-01-06T02:26:20.978Z,99752.16
2024-01-06T02:26:42.701Z,99756.44
2024-01-06T02:27:05.115Z,99751.28
2024-01-06T02:27:27.162Z,99752.22
2024-01-06T02:27:48.919Z,99747.75
2024-01-06T02:28:10.569Z,99750.31
2024-01-06T02:28:33.178Z,99755.72
2024-01-06T02:28:54.758Z,99753.84
2024-01-06T02:29:16.393Z,99759.16
2024-01-06T02:29:38.016Z,99744.53
2024-01-06T02:29:59.669Z,99759.16
2024-01-06T02:30:21.490Z,99757.28
2024-01-06T02:30:44.209Z,99753.63
2024-01-06T02:31:05.984Z,99762.38
2024-01-06T02:31:27.777Z,99757.88
2024-01-06T02:31:49.636Z,99762.31
2024-01-06T02:32:11.298Z,99755.34
2024-01-06T02:32:33.935Z,99765.47
2024-01-06T02:32:55.763Z,99762.31
2024-01-06T02:33:18.146Z,99740.16
2024-01-06T02:33:40.104Z,99760.81
2024-01-06T02:34:01.919Z,99750.47
2024-01-06T02:34:24.680Z,99762.44
2024-01-06T02:34:46.436Z,99764.03
2024-01-06T02:35:09.022Z,99767.63
2024-01-06T02:35:30.646Z,99764.59
2024-01-06T02:35:52.304Z,99767.41
2024-01-06T02:36:13.918Z,99767.63
2024-01-06T02:36:36.549Z,99767.41
2024-01-06T02:36:59.519Z,99760.16
2024-01-06T02:37:21.170Z,99760.88
2024-01-06T02:37:42.834Z,99751.13
2024-01-06T02:38:04.789Z,99760.66
2024-01-06T02:38:26.409Z,99764.25
2024-01-06T02:38:49.089Z,99764.13
2024-01-06T02:39:10.935Z,99766.63
2024-01-06T02:39:32.658Z,99758.59
2024-01-06T02:39:54.396Z,99762.09
2024-01-06T02:40:16.019Z,99754.59
2024-01-06T02:40:38.662Z,99757.88
2024-01-06T02:41:00.276Z,99771.81
2024-01-06T02:41:21.952Z,99762.31
2024-01-06T02:41:43.599Z,99760.16
2024-01-06T02:42:06.125Z,99766.06
2024-01-06T02:42:27.881Z,99766.13
2024-01-06T02:42:50.728Z,99762.53
2024-01-06T02:43:12.605Z,99762.53
2024-01-06T02:43:34.217Z,99762.31
2024-01-06T02:43:56.558Z,99768.50
2024-01-06T02:44:18.191Z,99767.97
2024-01-06T02:44:39.789Z,99765.19
2024-01-06T02:45:02.362Z,99752.06
2024-01-06T02:45:24.028Z,99766.63
2024-01-06T02:45:47.730Z,99765.63
2024-01-06T02:46:09.371Z,99769.84
2024-01-06T02:46:31.985Z,99768.94
2024-01-06T02:46:55.302Z,99726.88
2024-01-06T02:47:16.910Z,99746.53
2024-01-06T02:47:38.700Z,99775.00
2024-01-06T02:48:00.566Z,99765.25
2024-01-06T02:48:23.393Z,99766.06
2024-01-06T02:48:45.182Z,99776.81
2024-01-06T02:49:07.159Z,99779.13
2024-01-06T02:49:28.981Z,99772.19
2024-01-06T02:49:50.683Z,99773.88
2024-01-06T02:50:13.663Z,99769.44
2024-01-06T02:50:35.286Z,99773.00
2024-01-06T02:50:56.901Z,99761.25
2024-01-06T02:51:18.581Z,99773.22
2024-01-06T02:51:40.298Z,99770.19
2024-01-06T02:52:03.441Z,99780.69
2024-01-06T02:52:26.046Z,99774.31
2024-01-06T02:52:48.143Z,99769.78
2024-01-06T02:53:10.799Z,99785.72
2024-01-06T02:53:32.480Z,99773.94
2024-01-06T03:04:17.486Z,99790.00
2024-01-06T03:04:40.188Z,99795.16
2024-01-06T03:05:01.940Z,99803.00
2024-01-06T03:05:23.686Z,99801.13
2024-01-06T03:05:45.488Z,99794.94
2024-01-06T03:06:30.772Z,99795.69
2024-01-06T03:06:54.596Z,99787.72
2024-01-06T03:07:17.771Z,99801.28
2024-01-06T03:07:39.367Z,99797.69
2024-01-06T03:08:00.990Z,99801.28
2024-01-06T03:08:23.768Z,99803.78
2024-01-06T03:08:46.351Z,99807.34
2024-01-06T03:09:08.602Z,99799.47
2024-01-06T03:09:30.352Z,99799.34
2024-01-06T03:09:51.960Z,99801.94
2024-01-06T03:10:13.675Z,99795.91
2024-01-06T03:10:35.356Z,99801.94
2024-01-06T03:10:58.011Z,99810.97
2024-01-06T03:11:19.704Z,99807.66
2024-01-06T03:11:41.419Z,99810.22
2024-01-06T03:12:03.325Z,99804.03
2024-01-06T03:12:25.155Z,99812.75
2024-01-06T03:12:47.022Z,99805.78
2024-01-06T03:13:09.743Z,99811.03
2024-01-06T03:13:31.461Z,99809.25
2024-01-06T03:13:53.090Z,99813.47
2024-01-06T03:14:14.811Z,99808.16
2024-01-06T03:14:36.618Z,99805.00
2024-01-06T03:14:58.365Z,99810.81
2024-01-06T03:15:21.017Z,99815.97
2024-01-06T03:15:42.808Z,99817.56
2024-01-06T03:16:05.863Z,99812.19
2024-01-06T03:16:27.504Z,99809.53
2024-01-06T03:16:49.110Z,99808.81
2024-01-06T03:17:11.667Z,99809.53
2024-01-06T03:17:34.526Z,99805.00
2024-01-06T03:17:56.264Z,99815.75
2024-01-06T03:18:18.062Z,99809.66
2024-01-06T03:18:39.983Z,99801.97
2024-01-06T03:19:01.900Z,99801.34
2024-01-06T03:19:27.139Z,99810.59
2024-01-06T03:19:49.041Z,99822.44
2024-01-06T03:20:12.264Z,99815.19
2024-01-06T03:20:33.891Z,99815.97
2024-01-06T03:20:55.501Z,99819.44
2024-01-06T03:21:20.702Z,99816.78
2024-01-06T03:21:42.336Z,99816.63
2024-01-06T03:22:04.302Z,99813.03
2024-01-06T03:22:28.278Z,99817.34
2024-01-06T03:22:50.500Z,99820.06
2024-01-06T03:23:12.107Z,99817.56
2024-01-06T03:23:34.673Z,99821.28
2024-01-06T03:23:56.459Z,99814.97
2024-01-06T03:24:19.078Z,99814.81
2024-01-06T03:24:41.356Z,99816.56
2024-01-06T03:25:03.756Z,99821.66
2024-01-06T03:25:25.333Z,99821.59
2024-01-06T03:25:46.983Z,99812.59
2024-01-06T03:26:08.728Z,99819.66
2024-01-06T03:26:31.373Z,99820.56
2024-01-06T03:26:53.095Z,99816.41
2024-01-06T03:27:15.152Z,99817.69
2024-01-06T03:27:36.853Z,99812.28
2024-01-06T03:27:59.515Z,99820.06
2024-01-06T03:28:21.131Z,99821.72
2024-01-06T03:28:42.766Z,99818.22
2024-01-06T03:29:04.730Z,99817.41
2024-01-06T03:29:26.421Z,99821.00
2024-01-06T03:29:48.081Z,99823.06
2024-01-06T03:30:11.875Z,99825.28
2024-01-06T03:30:33.779Z,99819.84
2024-01-06T03:30:55.607Z,99822.44
2024-01-06T03:31:17.510Z,99824.94
2024-01-06T03:31:42.687Z,99822.13
2024-01-06T03:32:07.653Z,99816.72
2024-01-06T03:32:29.643Z,99821.00
2024-01-06T03:32:51.437Z,99814.72
2024-01-06T03:33:13.638Z,99817.22
2024-01-06T03:33:35.460Z,99824.19
2024-01-06T03:33:58.258Z,99822.25
2024-01-06T03:34:20.035Z,99816.06
2024-01-06T03:34:42.347Z,99826.41
2024-01-06T03:35:04.648Z,99812.25
2024-01-06T03:35:27.308Z,99818.28
2024-01-06T03:35:48.934Z,99805.94
2024-01-06T03:36:10.933Z,99818.28
2024-01-06T03:36:32.588Z,99820.00
2024-01-06T03:36:54.362Z,99820.88
2024-01-06T03:37:16.297Z,99821.88
2024-01-06T03:37:40.267Z,99824.25
2024-01-06T03:38:01.916Z,99819.06
2024-01-06T03:38:23.599Z,99821.59
2024-01-06T03:38:45.262Z,99815.34
2024-01-06T03:39:07.018Z,99821.44
2024-01-06T03:39:28.739Z,99823.09
2024-01-06T03:39:51.407Z,99817.69
2024-01-06T03:40:13.719Z,99815.84
2024-01-06T03:40:35.332Z,99817.84
2024-01-06T03:40:57.034Z,99818.50
2024-01-06T03:41:18.665Z,99819.31
2024-01-06T03:41:40.356Z,99823.59
2024-01-06T03:42:02.040Z,99821.81
2024-01-06T03:42:24.663Z,99818.22
2024-01-06T03:42:46.352Z,99811.47
2024-01-06T03:43:07.948Z,99819.22
2024-01-06T03:43:29.574Z,99814.63
2024-01-06T03:43:51.205Z,99817.28
2024-01-06T03:44:12.814Z,99818.13
2024-01-06T03:44:36.013Z,99793.09
2024-01-06T03:44:57.777Z,99812.09
2024-01-06T03:45:19.483Z,99825.03
2024-01-06T03:45:41.356Z,99819.78
2024-01-06T03:46:03.173Z,99812.75
2024-01-06T03:46:25.848Z,99806.66
2024-01-06T03:46:47.518Z,99819.78
2024-01-06T03:47:09.202Z,99816.13
2024-01-06T03:47:30.879Z,99817.94
2024-01-06T03:47:52.587Z,99805.72
2024-01-06T03:48:15.487Z,99814.69
2024-01-06T03:48:37.445Z,99816.44
2024-01-06T03:48:59.328Z,99817.19
2024-01-06T03:49:21.853Z,99816.22
2024-01-06T03:49:43.675Z,99809.97
2024-01-06T03:50:06.891Z,99808.09
2024-01-06T03:50:28.495Z,99805.44
2024-01-06T03:50:50.143Z,99816.75
2024-01-06T03:51:13.886Z,99814.03
2024-01-06T03:51:35.634Z,99820.22
2024-01-06T03:51:57.450Z,99815.69
2024-01-06T03:52:20.838Z,99817.41
2024-01-06T03:52:43.834Z,99818.13
2024-01-06T03:53:06.160Z,99820.69
2024-01-06T03:53:27.765Z,99821.66
2024-01-06T03:53:49.472Z,99821.66
2024-01-06T03:54:12.062Z,99815.69
2024-01-06T03:54:33.714Z,99820.06
2024-01-06T03:54:55.509Z,99822.59
2024-01-06T03:55:17.545Z,99823.44
2024-01-06T03:55:39.173Z,99820.69
2024-01-06T03:56:01.937Z,99822.44
2024-01-06T03:56:23.740Z,99822.44
2024-01-06T03:56:45.388Z,99825.88
2024-01-06T03:57:07.025Z,99823.13
2024-01-06T03:57:28.816Z,99820.47
2024-01-06T03:57:51.484Z,99822.91
2024-01-06T03:58:13.468Z,99821.22
2024-01-06T03:58:35.461Z,99820.25
2024-01-06T03:58:57.128Z,99824.88
2024-01-06T03:59:18.760Z,99803.56
2024-01-06T03:59:40.352Z,99821.53
2024-01-06T04:00:03.187Z,99830.63
2024-01-06T04:00:26.861Z,99825.97
2024-01-06T04:00:48.826Z,99827.59
2024-01-06T04:01:43.276Z,99825.59
2024-01-06T04:02:06.801Z,99826.53
2024-01-06T04:02:28.427Z,99824.72
2024-01-06T04:02:50.174Z,99830.13
2024-01-06T04:03:11.792Z,99822.06
2024-01-06T04:03:33.518Z,99824.72
2024-01-06T04:03:55.215Z,99819.72
2024-01-06T04:04:17.979Z,99820.00
2024-01-06T04:04:39.604Z,99824.47
2024-01-06T04:05:01.276Z,99826.03
2024-01-06T04:05:23.058Z,99819.31
2024-01-06T04:05:45.016Z,99823.44
2024-01-06T04:06:06.947Z,99819.09
2024-01-06T04:06:29.619Z,99823.31
2024-01-06T04:06:51.333Z,99828.56
2024-01-06T04:07:13.040Z,99824.94
2024-01-06T04:07:34.777Z,99825.81
2024-01-06T04:07:57.825Z,99825.97
2024-01-06T04:08:19.938Z,99827.59
2024-01-06T04:08:41.807Z,99826.75
2024-01-06T04:09:04.603Z,99824.09
2024-01-06T04:09:26.286Z,99825.91
2024-01-06T04:09:47.956Z,99827.53
2024-01-06T04:10:10.232Z,99827.53
2024-01-06T04:10:31.900Z,99829.19
2024-01-06T04:10:58.504Z,99827.31
2024-01-06T04:11:21.264Z,99825.47
2024-01-06T04:11:43.062Z,99827.97
2024-01-06T04:12:04.970Z,99824.59
2024-01-06T04:12:26.618Z,99826.34
2024-01-06T04:12:49.350Z,99830.69
2024-01-06T04:13:11.591Z,99822.66
2024-01-06T04:13:33.199Z,99826.22
2024-01-06T04:13:54.831Z,99828.88
2024-01-06T04:14:16.437Z,99824.50
2024-01-06T04:14:39.038Z,99832.28
2024-01-06T04:15:00.641Z,99824.31
2024-01-06T04:15:22.284Z,99828.84
2024-01-06T04:15:43.985Z,99831.47
2024-01-06T04:16:06.361Z,99833.06
2024-01-06T04:16:29.175Z,99826.03
2024-01-06T04:16:50.820Z,99828.75
2024-01-06T04:17:12.480Z,99820.94
2024-01-06T04:17:34.182Z,99819.84
2024-01-06T04:17:56.121Z,99826.97
2024-01-06T04:18:19.213Z,99824.47
2024-01-06T04:18:41.057Z,99827.19
2024-01-06T04:19:02.963Z,99825.31
2024-01-06T04:19:24.920Z,99835.25
2024-01-06T04:19:46.992Z,99831.63
2024-01-06T04:20:13.478Z,99823.75
2024-01-06T04:20:36.090Z,99839.69
2024-01-06T04:20:57.783Z,99828.91
2024-01-06T04:21:19.594Z,99824.47
2024-01-06T04:21:41.273Z,99829.63
2024-01-06T04:22:02.904Z,99832.28
2024-01-06T04:22:25.201Z,99834.28
2024-01-06T04:22:49.189Z,99835.09
2024-01-06T04:23:12.240Z,99836.81
2024-01-06T04:23:33.873Z,99836.72
2024-01-06T04:23:57.026Z,99827.81
2024-01-06T04:24:18.646Z,99825.97
2024-01-06T04:24:41.899Z,99829.19
2024-01-06T04:25:04.124Z,99832.63
2024-01-06T04:25:25.767Z,99831.78
2024-01-06T04:25:47.642Z,99830.84
2024-01-06T04:26:09.749Z,99829.91
2024-01-06T04:26:31.435Z,99837.66
2024-01-06T04:26:54.094Z,99832.28
2024-01-06T04:27:15.809Z,99836.63
2024-01-06T04:27:37.540Z,99834.94
2024-01-06T04:28:00.344Z,99835.78
2024-01-06T04:28:21.991Z,99833.91
2024-01-06T04:28:43.673Z,99833.91
2024-01-06T04:29:06.286Z,99834.72
2024-01-06T04:29:28.241Z,99839.00
2024-01-06T04:29:53.992Z,99838.09
2024-01-06T04:30:15.980Z,99838.09
2024-01-06T04:30:37.696Z,99832.84
2024-01-06T04:31:00.400Z,99838.94
2024-01-06T04:31:22.116Z,99831.84
2024-01-06T04:31:43.906Z,99832.59
2024-01-06T04:32:06.156Z,99831.03
2024-01-06T04:32:28.274Z,99838.72
2024-01-06T04:32:51.006Z,99840.44
2024-01-06T04:33:12.943Z,99843.88
2024-01-06T04:33:34.854Z,99834.19
2024-01-06T04:33:56.656Z,99839.38
2024-01-06T04:34:18.816Z,99847.28
2024-01-06T04:34:40.694Z,99846.41
2024-01-06T04:35:02.611Z,99842.78
2024-01-06T04:35:27.315Z,99845.38
2024-01-06T04:35:48.945Z,99845.31
2024-01-06T04:36:11.592Z,99840.94
2024-01-06T04:36:33.319Z,99844.38
2024-01-06T04:36:55.526Z,99845.38
2024-01-06T04:37:17.201Z,99851.50
2024-01-06T04:37:38.858Z,99842.66
2024-01-06T04:38:01.431Z,99845.38
2024-01-06T04:38:24.704Z,99845.31
2024-01-06T04:38:46.271Z,99843.75
2024-01-06T04:39:07.954Z,99846.47
2024-01-06T04:39:30.635Z,99836.94
2024-01-06T04:39:52.343Z,99845.84
2024-01-06T04:40:14.203Z,99847.63
2024-01-06T04:40:36.274Z,99846.91
2024-01-06T04:40:57.936Z,99852.75
2024-01-06T04:41:22.652Z,99843.53
2024-01-06T04:41:44.564Z,99851.81
2024-01-06T04:42:06.697Z,99850.31
2024-01-06T04:42:28.387Z,99855.31
2024-01-06T04:42:50.183Z,99851.66
2024-01-06T04:43:11.975Z,99847.22
2024-01-06T04:43:34.545Z,99851.44
2024-01-06T04:43:56.452Z,99847.75
2024-01-06T04:44:21.802Z,99845.97
2024-01-06T04:44:43.388Z,99850.31
2024-01-06T04:45:05.873Z,99850.31
2024-01-06T04:45:28.469Z,99856.06
2024-01-06T04:45:51.482Z,99853.44
2024-01-06T04:46:13.117Z,99856.06
2024-01-06T04:46:34.722Z,99852.53